createdAt,value
2023-01-26T00:01:44.689Z,40.87
2023-01-26T00:06:47.276Z,42.17
2023-01-26T00:11:51.165Z,40.87
2023-01-26T00:16:54.320Z,43.00
2023-01-26T00:21:56.848Z,43.03
2023-01-26T00:27:01.083Z,45.60
2023-01-26T00:32:03.599Z,43.37
2023-01-26T00:37:06.245Z,42.47
2023-01-26T00:42:13.868Z,44.43
2023-01-26T00:47:19.228Z,42.63
2023-01-26T00:52:21.793Z,43.63
2023-01-26T00:57:27.374Z,45.60
2023-01-26T01:02:29.904Z,46.73
2023-01-26T01:07:32.839Z,44.37
2023-01-26T01:12:37.100Z,42.83
2023-01-26T01:17:39.767Z,42.27
2023-01-26T01:22:44.189Z,42.43
2023-01-26T01:27:48.079Z,44.37
2023-01-26T01:32:52.106Z,39.63
2023-01-26T01:37:54.700Z,41.60
2023-01-26T01:42:58.723Z,39.70
2023-01-26T01:48:04.943Z,40.40
2023-01-26T01:53:13.496Z,40.47
2023-01-26T01:58:17.851Z,41.83
2023-01-26T02:03:21.247Z,38.40
2023-01-26T02:08:28.487Z,39.73
2023-01-26T02:13:34.439Z,40.37
2023-01-26T02:18:37.372Z,39.20
2023-01-26T02:23:54.989Z,40.87
2023-01-26T02:29:01.826Z,40.37
2023-01-26T02:34:04.893Z,39.73
2023-01-26T02:39:21.807Z,39.53
2023-01-26T02:44:26.542Z,41.60
2023-01-26T02:49:46.766Z,43.20
2023-01-26T02:55:07.793Z,41.30
2023-01-26T03:00:14.329Z,41.97
2023-01-26T03:05:17.355Z,41.17
2023-01-26T03:10:20.109Z,42.80
2023-01-26T03:15:42.871Z,40.80
2023-01-26T03:21:04.147Z,42.90
2023-01-26T03:26:24.537Z,41.07
2023-01-26T03:31:35.662Z,39.57
2023-01-26T03:36:39.033Z,39.63
2023-01-26T03:42:04.240Z,39.33
2023-01-26T03:47:25.785Z,41.77
2023-01-26T03:52:45.951Z,38.43
2023-01-26T03:57:48.849Z,38.20
2023-01-26T04:03:10.926Z,38.13
2023-01-26T04:08:23.493Z,36.60
2023-01-26T04:13:49.430Z,35.00
2023-01-26T04:19:23.091Z,35.80
2023-01-26T04:24:26.607Z,37.30
2023-01-26T04:29:32.255Z,40.07
2023-01-26T04:34:36.237Z,37.20
2023-01-26T04:39:45.246Z,38.73
2023-01-26T04:44:48.149Z,38.57
2023-01-26T04:49:52.206Z,39.10
2023-01-26T04:54:57.646Z,37.27
2023-01-26T05:00:00.388Z,35.00
2023-01-26T05:05:04.650Z,34.30
2023-01-26T05:10:08.619Z,42.37
2023-01-26T05:15:27.526Z,33.70
2023-01-26T05:20:50.006Z,36.40
2023-01-26T05:25:54.972Z,34.93
2023-01-26T05:30:57.759Z,33.63
2023-01-26T05:36:06.004Z,34.23
2023-01-26T05:41:08.915Z,31.43
2023-01-26T05:46:36.785Z,32.80
2023-01-26T05:51:40.736Z,32.97
2023-01-26T05:56:43.737Z,29.77
2023-01-26T06:01:46.425Z,31.27
2023-01-26T06:06:50.560Z,29.97
2023-01-26T06:11:59.487Z,31.17
2023-01-26T06:17:20.880Z,68.67
2023-01-26T06:22:29.293Z,29.53
2023-01-26T06:27:34.169Z,29.67
2023-01-26T06:32:40.145Z,31.43
2023-01-26T06:37:45.375Z,32.13
2023-01-26T06:42:52.838Z,31.90
2023-01-26T06:48:02.467Z,29.00
2023-01-26T06:53:28.197Z,41.37
2023-01-26T06:59:00.285Z,31.27
2023-01-26T07:04:26.990Z,30.00
2023-01-26T07:09:33.930Z,32.23
2023-01-26T07:14:37.728Z,30.30
2023-01-26T07:19:40.293Z,30.07
2023-01-26T07:24:44.190Z,28.67
2023-01-26T07:29:47.316Z,28.07
2023-01-26T07:34:49.931Z,50.37
2023-01-26T07:39:53.835Z,30.77
2023-01-26T07:44:56.378Z,30.97
2023-01-26T07:49:58.995Z,29.40
2023-01-26T07:55:02.933Z,30.63
2023-01-26T08:00:06.426Z,30.20
2023-01-26T08:05:14.381Z,31.40
2023-01-26T08:10:18.726Z,30.40
2023-01-26T08:15:21.315Z,30.30
2023-01-26T08:20:24.126Z,29.90
2023-01-26T08:25:28.393Z,34.77
2023-01-26T08:30:30.967Z,30.50
2023-01-26T08:35:33.714Z,25.93
2023-01-26T08:40:37.997Z,25.80
2023-01-26T08:45:40.553Z,26.30
2023-01-26T08:50:43.144Z,24.80
2023-01-26T08:55:47.116Z,22.70
2023-01-26T09:00:49.968Z,23.63
2023-01-26T09:05:52.644Z,21.43
2023-01-26T09:10:56.977Z,22.13
2023-01-26T09:15:59.523Z,21.87
2023-01-26T09:21:08.327Z,22.47
2023-01-26T09:26:13.935Z,21.27
2023-01-26T09:31:16.632Z,19.20
2023-01-26T09:36:19.782Z,18.13
2023-01-26T09:41:56.446Z,18.10
2023-01-26T09:47:07.641Z,17.13
2023-01-26T09:52:17.205Z,17.63
2023-01-26T09:57:28.795Z,17.00
2023-01-26T10:02:42.775Z,15.07
2023-01-26T10:07:46.130Z,17.00
2023-01-26T10:12:52.217Z,16.67
2023-01-26T10:17:55.963Z,16.50
2023-01-26T10:23:02.983Z,14.23
2023-01-26T10:28:14.627Z,25.45
2023-01-26T10:33:20.726Z,15.90
2023-01-26T10:38:41.400Z,11.80
2023-01-26T10:43:53.429Z,12.67
2023-01-26T10:48:58.098Z,14.03
2023-01-26T10:54:21.360Z,12.10
2023-01-26T10:59:32.113Z,12.53
2023-01-26T11:04:34.684Z,12.57
2023-01-26T11:09:37.406Z,13.73
2023-01-26T11:14:41.340Z,13.17
2023-01-26T11:20:15.805Z,13.03
2023-01-26T11:25:25.708Z,12.60
2023-01-26T11:30:48.287Z,14.60
2023-01-26T11:35:58.205Z,12.53
2023-01-26T11:41:16.690Z,13.00
2023-01-26T11:46:46.307Z,13.70
2023-01-26T11:52:01.779Z,13.07
2023-01-26T11:57:16.238Z,12.60
2023-01-26T12:02:29.874Z,12.83
2023-01-26T12:07:51.285Z,12.17
2023-01-26T12:13:00.393Z,13.10
2023-01-26T12:18:15.380Z,14.10
2023-01-26T12:23:28.521Z,13.80
2023-01-26T12:28:35.724Z,12.70
2023-01-26T12:33:40.597Z,12.60
2023-01-26T12:38:53.530Z,13.47
2023-01-26T12:44:09.842Z,13.37
2023-01-26T12:49:20.849Z,14.03
2023-01-26T12:54:34.472Z,13.13
2023-01-26T12:59:47.774Z,18.60
2023-01-26T13:04:53.100Z,14.50
2023-01-26T13:10:25.442Z,14.37
2023-01-26T13:15:31.657Z,14.03
2023-01-26T13:20:47.424Z,15.23
2023-01-26T13:26:10.113Z,15.43
2023-01-26T13:31:13.578Z,14.77
2023-01-26T13:36:21.517Z,17.07
2023-01-26T13:41:24.201Z,18.67
2023-01-26T13:46:32.521Z,20.23
2023-01-26T13:51:36.623Z,19.33
2023-01-26T13:56:40.671Z,19.57
2023-01-26T14:01:45.352Z,19.40
2023-01-26T14:06:54.022Z,19.43
2023-01-26T14:12:00.532Z,19.20
2023-01-26T14:17:08.299Z,20.80
2023-01-26T14:22:15.554Z,18.80
2023-01-26T14:27:32.789Z,19.67
2023-01-26T14:32:35.561Z,16.83
2023-01-26T14:37:39.478Z,18.53
2023-01-26T14:42:42.277Z,16.23
2023-01-26T14:47:45.287Z,15.37
2023-01-26T14:52:49.266Z,14.03
2023-01-26T14:57:52.574Z,14.67
2023-01-26T15:02:57.344Z,14.00
2023-01-26T15:08:03.360Z,14.17
2023-01-26T15:13:21.035Z,15.07
2023-01-26T15:18:23.587Z,11.30
2023-01-26T15:23:30.282Z,11.57
2023-01-26T15:28:33.906Z,19.60
2023-01-26T15:33:50.627Z,13.60
2023-01-26T15:39:01.850Z,10.77
2023-01-26T15:44:04.668Z,50.93
2023-01-26T15:49:07.225Z,10.93
2023-01-26T15:54:12.235Z,44.43
2023-01-26T15:59:14.817Z,14.27
2023-01-26T16:04:17.583Z,11.67
2023-01-26T16:09:21.553Z,11.33
2023-01-26T16:14:24.109Z,12.23
2023-01-26T16:19:35.350Z,13.63
2023-01-26T16:24:41.767Z,15.90
2023-01-26T16:29:44.385Z,122.60
2023-01-26T16:34:46.930Z,19.73
2023-01-26T16:39:50.911Z,16.13
2023-01-26T16:44:53.521Z,16.10
2023-01-26T16:49:56.104Z,15.20
2023-01-26T16:55:00.048Z,16.63
2023-01-26T17:00:03.046Z,17.00
2023-01-26T17:05:06.509Z,18.07
2023-01-26T17:10:12.199Z,21.50
2023-01-26T17:15:15.224Z,18.07
2023-01-26T17:20:20.069Z,16.90
2023-01-26T17:25:24.341Z,16.13
2023-01-26T17:30:27.147Z,18.70
2023-01-26T17:35:30.489Z,18.50
2023-01-26T17:40:36.614Z,19.13
2023-01-26T17:45:39.358Z,71.80
2023-01-26T17:50:48.341Z,20.07
2023-01-26T17:55:53.081Z,18.60
2023-01-26T18:00:55.820Z,18.70
2023-01-26T18:05:59.446Z,17.17
2023-01-26T18:11:05.741Z,17.60
2023-01-26T18:16:09.905Z,15.57
2023-01-26T18:21:14.902Z,38.83
2023-01-26T18:26:20.369Z,11.53
2023-01-26T18:31:24.741Z,13.23
2023-01-26T18:36:28.390Z,13.20
2023-01-26T18:41:32.906Z,10.30
2023-01-26T18:46:36.083Z,9.63
2023-01-26T18:51:38.637Z,7.63
2023-01-26T18:56:42.802Z,25.63
2023-01-26T19:01:45.346Z,10.77
2023-01-26T19:06:48.456Z,6.80
2023-01-26T19:11:52.341Z,6.53
2023-01-26T19:16:54.928Z,6.40
2023-01-26T19:21:57.754Z,5.87
2023-01-26T19:27:01.694Z,4.87
2023-01-26T19:32:04.407Z,5.40
2023-01-26T19:37:07.038Z,4.67
2023-01-26T19:42:11.155Z,3.83
2023-01-26T19:47:13.739Z,4.90
2023-01-26T19:52:16.359Z,4.17
2023-01-26T19:57:20.244Z,11.40
2023-01-26T20:02:22.896Z,3.27
2023-01-26T20:07:25.658Z,3.20
2023-01-26T20:12:29.599Z,2.60
2023-01-26T20:17:32.191Z,3.40
2023-01-26T20:22:35.240Z,3.77
2023-01-26T20:27:39.316Z,3.63
2023-01-26T20:32:41.921Z,3.40
2023-01-26T20:37:44.649Z,3.53
2023-01-26T20:42:48.982Z,3.00
2023-01-26T20:47:51.666Z,3.53
2023-01-26T20:52:54.817Z,7.93
2023-01-26T20:57:59.132Z,3.67
2023-01-26T21:03:01.701Z,4.50
2023-01-26T21:08:04.461Z,4.30
2023-01-26T21:13:09.268Z,5.43
2023-01-26T21:18:12.379Z,5.30
2023-01-26T21:23:15.492Z,3.77
2023-01-26T21:28:19.376Z,4.10
2023-01-26T21:33:22.005Z,4.23
2023-01-26T21:38:24.703Z,68.37
2023-01-26T21:43:29.341Z,5.37
2023-01-26T21:48:35.560Z,3.47
2023-01-26T21:53:38.168Z,3.60
2023-01-26T21:59:02.439Z,4.60
2023-01-26T22:04:07.726Z,51.83
2023-01-26T22:09:12.845Z,3.50
2023-01-26T22:14:18.471Z,8.93
2023-01-26T22:19:21.227Z,4.70
2023-01-26T22:24:23.779Z,6.63
2023-01-26T22:29:27.787Z,3.37
2023-01-26T22:34:30.421Z,2.70
2023-01-26T22:39:32.959Z,1.90
2023-01-26T22:44:36.942Z,1.87
2023-01-26T22:49:43.665Z,2.67
2023-01-26T22:54:48.173Z,1.90
2023-01-26T22:59:52.143Z,1.80
2023-01-26T23:04:54.728Z,1.70
2023-01-26T23:09:57.290Z,1.80
2023-01-26T23:15:01.168Z,2.40
2023-01-26T23:20:03.821Z,2.00
2023-01-26T23:25:24.733Z,2.70
2023-01-26T23:30:28.829Z,3.07
2023-01-26T23:35:31.486Z,2.70
2023-01-26T23:40:34.912Z,2.27
2023-01-26T23:45:38.901Z,2.70
2023-01-26T23:50:42.348Z,3.07
2023-01-26T23:55:45.056Z,2.43
